Time;durP1;ratioP1;P1;durP2;ratioP2;P2;SDS_P1;SDS_P2;PMS_P1;PMS_P2;Temp;Humidity;BMP_temperature;BMP_pressure;BME280_temperature;BME280_humidity;BME280_pressure;Samples;Min_cycle;Max_cycle;Signal;HPM_P1;HPM_P2
2023/10/29 00:01:41;;;;;;;5.00;1.55;;;;;;;;;;5043466;28;20045;-77
2023/10/29 00:05:23;;;;;;;4.63;1.20;;;;;;;;;;5043666;28;20052;-75
2023/10/29 00:09:06;;;;;;;2.78;1.08;;;;;;;;;;5039462;28;20429;-76
2023/10/29 00:12:48;;;;;;;4.35;1.10;;;;;;;;;;5042243;28;20490;-79
2023/10/29 00:16:28;;;;;;;2.47;0.95;;;;;;;;;;5036436;28;20045;-72
2023/10/29 00:20:09;;;;;;;8.13;1.35;;;;;;;;;;5041386;28;20043;-75
2023/10/29 00:23:49;;;;;;;2.15;0.75;;;;;;;;;;5041412;28;20378;-74
2023/10/29 00:27:29;;;;;;;3.33;1.15;;;;;;;;;;5037272;28;20414;-72
2023/10/29 00:31:10;;;;;;;3.83;1.30;;;;;;;;;;5034629;28;20049;-75
2023/10/29 00:34:51;;;;;;;1.50;0.98;;;;;;;;;;5042503;28;20081;-75
2023/10/29 00:38:31;;;;;;;4.88;1.02;;;;;;;;;;5042813;28;20457;-74
2023/10/29 00:42:12;;;;;;;3.17;1.20;;;;;;;;;;5035947;28;20511;-73
2023/10/29 00:45:53;;;;;;;4.70;1.00;;;;;;;;;;5032170;28;20052;-73
2023/10/29 00:49:33;;;;;;;4.13;1.10;;;;;;;;;;5029781;28;20506;-74
2023/10/29 00:53:13;;;;;;;3.42;1.00;;;;;;;;;;5050480;28;20052;-74
2023/10/29 00:56:53;;;;;;;3.97;0.90;;;;;;;;;;5032729;28;20055;-74
2023/10/29 01:00:34;;;;;;;2.38;0.90;;;;;;;;;;5033474;28;20049;-74
2023/10/29 01:04:14;;;;;;;3.03;1.20;;;;;;;;;;5039840;28;20122;-75
2023/10/29 01:07:54;;;;;;;4.07;0.98;;;;;;;;;;5049216;28;20509;-74
2023/10/29 01:11:35;;;;;;;3.95;1.20;;;;;;;;;;5039750;28;20188;-75
2023/10/29 01:15:15;;;;;;;3.65;1.10;;;;;;;;;;5029762;28;20041;-74
2023/10/29 01:18:56;;;;;;;4.93;1.10;;;;;;;;;;5029970;28;20053;-75
2023/10/29 01:22:36;;;;;;;3.15;1.00;;;;;;;;;;5045442;28;20052;-73
2023/10/29 01:26:17;;;;;;;6.10;1.17;;;;;;;;;;5042025;28;20049;-75
2023/10/29 01:29:57;;;;;;;3.90;1.05;;;;;;;;;;5037067;28;20056;-73
2023/10/29 01:33:38;;;;;;;3.40;1.27;;;;;;;;;;5039125;28;20397;-74
2023/10/29 01:37:18;;;;;;;4.88;1.20;;;;;;;;;;5040772;28;20052;-75
2023/10/29 01:40:59;;;;;;;3.35;1.00;;;;;;;;;;5046997;28;20049;-75
2023/10/29 01:44:39;;;;;;;4.22;1.40;;;;;;;;;;5033230;28;20792;-77
2023/10/29 01:48:23;;;;;;;6.05;1.13;;;;;;;;;;5041691;28;20056;-75
2023/10/29 01:52:00;;;;;;;4.38;1.17;;;;;;;;;;5040641;28;20048;-74
2023/10/29 01:55:40;;;;;;;3.35;1.10;;;;;;;;;;5043976;28;20097;-75
2023/10/29 01:59:20;;;;;;;6.45;0.93;;;;;;;;;;5038002;28;20615;-76
2023/10/29 02:03:02;;;;;;;3.25;0.90;;;;;;;;;;5036915;28;20139;-75
2023/10/29 02:06:43;;;;;;;3.35;1.17;;;;;;;;;;5042618;28;20037;-74
2023/10/29 02:10:25;;;;;;;5.30;1.30;;;;;;;;;;5039727;28;20045;-75
2023/10/29 02:14:04;;;;;;;3.83;0.90;;;;;;;;;;5043121;28;20049;-74
2023/10/29 02:17:44;;;;;;;3.33;0.90;;;;;;;;;;5041578;28;20049;-75
2023/10/29 02:21:24;;;;;;;6.88;1.10;;;;;;;;;;5036912;28;20427;-74
2023/10/29 02:25:05;;;;;;;4.32;1.02;;;;;;;;;;5044668;28;20064;-74
2023/10/29 02:28:45;;;;;;;3.95;1.10;;;;;;;;;;5036906;28;20132;-74
2023/10/29 02:32:25;;;;;;;2.42;0.80;;;;;;;;;;5038122;28;20478;-74
2023/10/29 02:36:06;;;;;;;4.50;0.88;;;;;;;;;;5039686;28;20095;-75
2023/10/29 02:39:47;;;;;;;3.75;1.10;;;;;;;;;;5045369;28;20238;-73
2023/10/29 02:43:27;;;;;;;2.85;0.90;;;;;;;;;;5038348;28;20049;-74
2023/10/29 02:47:08;;;;;;;4.57;1.15;;;;;;;;;;5037082;28;20057;-74
2023/10/29 02:50:48;;;;;;;3.13;1.05;;;;;;;;;;5041105;28;20055;-75
2023/10/29 02:54:28;;;;;;;4.50;1.20;;;;;;;;;;5042036;28;20126;-77
2023/10/29 02:58:09;;;;;;;4.10;1.13;;;;;;;;;;5039707;28;20049;-74
2023/10/29 03:01:49;;;;;;;4.25;1.65;;;;;;;;;;5043017;28;20416;-75
2023/10/29 03:05:29;;;;;;;3.90;1.15;;;;;;;;;;5034295;28;20076;-75
2023/10/29 03:09:10;;;;;;;5.78;1.10;;;;;;;;;;5040204;28;20044;-74
2023/10/29 03:12:50;;;;;;;4.47;1.30;;;;;;;;;;5038335;28;20049;-75
2023/10/29 03:15:51;;;;;;;4.05;1.30;;;;;;;;;;5033864;28;20048;-75
2023/10/29 03:18:17;;;;;;;4.05;1.35;;;;;;;;;;5043210;28;20459;-75
2023/10/29 03:20:43;;;;;;;7.47;1.50;;;;;;;;;;5028156;28;20045;-75
2023/10/29 03:23:11;;;;;;;4.47;1.13;;;;;;;;;;5037767;28;20068;-73
2023/10/29 03:25:36;;;;;;;5.63;1.10;;;;;;;;;;5041196;28;20052;-76
2023/10/29 03:28:03;;;;;;;2.47;1.00;;;;;;;;;;5041249;28;20063;-75
2023/10/29 03:30:29;;;;;;;5.72;1.30;;;;;;;;;;5040524;28;20442;-73
2023/10/29 03:33:35;;;;;;;4.95;1.33;;;;;;;;;;5043686;28;20041;-75
2023/10/29 03:37:15;;;;;;;4.38;1.35;;;;;;;;;;5039857;28;20113;-75
2023/10/29 03:40:55;;;;;;;6.00;1.17;;;;;;;;;;5039095;28;20036;-74
2023/10/29 03:44:36;;;;;;;6.88;1.23;;;;;;;;;;5036462;28;20053;-76
2023/10/29 03:48:16;;;;;;;4.90;1.23;;;;;;;;;;5040248;28;20397;-75
2023/10/29 03:51:56;;;;;;;4.75;1.30;;;;;;;;;;5036214;28;20483;-75
2023/10/29 03:55:37;;;;;;;5.60;1.10;;;;;;;;;;5039008;28;20123;-77
2023/10/29 03:59:17;;;;;;;5.43;1.25;;;;;;;;;;5042567;28;20053;-73
2023/10/29 04:02:59;;;;;;;3.60;1.05;;;;;;;;;;5045067;28;20126;-74
2023/10/29 04:06:39;;;;;;;2.22;1.20;;;;;;;;;;5038326;28;20484;-76
2023/10/29 04:10:19;;;;;;;9.10;1.35;;;;;;;;;;5031869;28;20107;-75
2023/10/29 04:14:00;;;;;;;3.60;0.85;;;;;;;;;;5036730;28;20455;-73
2023/10/29 04:17:40;;;;;;;5.75;1.30;;;;;;;;;;5039764;28;20044;-75
2023/10/29 04:21:20;;;;;;;10.13;1.20;;;;;;;;;;5030262;28;20076;-75
2023/10/29 04:25:01;;;;;;;4.90;1.27;;;;;;;;;;5040864;28;20535;-72
2023/10/29 04:28:41;;;;;;;5.03;1.20;;;;;;;;;;5035275;28;20053;-75
2023/10/29 04:32:22;;;;;;;4.82;1.20;;;;;;;;;;5039441;28;20134;-75
2023/10/29 04:36:03;;;;;;;9.35;1.60;;;;;;;;;;5038438;28;20072;-75
2023/10/29 04:39:44;;;;;;;5.00;1.20;;;;;;;;;;5037235;28;20114;-74
2023/10/29 04:43:24;;;;;;;6.72;1.40;;;;;;;;;;5040891;28;20056;-76
2023/10/29 04:47:05;;;;;;;3.22;1.20;;;;;;;;;;5037081;28;20045;-75
2023/10/29 04:50:45;;;;;;;6.75;1.42;;;;;;;;;;5035481;28;20112;-75
2023/10/29 04:53:48;;;;;;;5.22;1.17;;;;;;;;;;5036959;28;20048;-75
2023/10/29 04:56:14;;;;;;;4.00;1.05;;;;;;;;;;5032101;28;20557;-74
2023/10/29 04:59:20;;;;;;;8.13;1.70;;;;;;;;;;5044098;28;20045;-74
2023/10/29 05:03:01;;;;;;;3.85;1.13;;;;;;;;;;5035281;28;20052;-74
2023/10/29 05:06:03;;;;;;;6.85;1.42;;;;;;;;;;5041353;28;20525;-76
2023/10/29 05:08:30;;;;;;;4.03;1.50;;;;;;;;;;5039161;28;20103;-75
2023/10/29 05:10:57;;;;;;;3.53;1.20;;;;;;;;;;5042455;28;20487;-76
2023/10/29 05:13:24;;;;;;;6.03;1.58;;;;;;;;;;5038435;28;20048;-75
2023/10/29 05:15:51;;;;;;;6.80;1.17;;;;;;;;;;5040288;28;20059;-75
2023/10/29 05:18:17;;;;;;;7.60;1.27;;;;;;;;;;5042489;28;20110;-74
2023/10/29 05:20:43;;;;;;;12.02;1.17;;;;;;;;;;5042477;28;20060;-77
2023/10/29 05:23:10;;;;;;;3.90;1.20;;;;;;;;;;5048595;28;20059;-74
2023/10/29 05:25:39;;;;;;;4.20;1.33;;;;;;;;;;5043971;28;20123;-75
2023/10/29 05:28:05;;;;;;;3.63;1.20;;;;;;;;;;5026004;28;20053;-78
2023/10/29 05:30:31;;;;;;;2.95;1.10;;;;;;;;;;5054000;28;20127;-76
2023/10/29 05:32:57;;;;;;;4.20;1.23;;;;;;;;;;5041272;28;20514;-76
2023/10/29 05:35:23;;;;;;;4.35;1.52;;;;;;;;;;5036903;28;20079;-76
2023/10/29 05:37:52;;;;;;;7.47;1.25;;;;;;;;;;5042102;28;20109;-75
2023/10/29 05:40:18;;;;;;;5.03;1.40;;;;;;;;;;5047890;28;20049;-75
2023/10/29 05:42:45;;;;;;;5.95;1.27;;;;;;;;;;5043309;28;20045;-74
2023/10/29 05:45:11;;;;;;;5.22;1.02;;;;;;;;;;5026946;28;20053;-75
2023/10/29 05:47:37;;;;;;;5.28;1.42;;;;;;;;;;5040943;28;20489;-74
2023/10/29 05:50:06;;;;;;;2.22;0.95;;;;;;;;;;5039313;28;20053;-76
2023/10/29 05:52:32;;;;;;;6.10;1.38;;;;;;;;;;5049460;28;20412;-76
2023/10/29 05:55:00;;;;;;;6.63;1.30;;;;;;;;;;5045429;28;20050;-75
2023/10/29 05:57:27;;;;;;;3.17;1.33;;;;;;;;;;5051559;28;20033;-75
2023/10/29 06:00:35;;;;;;;6.47;1.20;;;;;;;;;;5042900;28;20072;-74
2023/10/29 06:04:15;;;;;;;4.65;1.33;;;;;;;;;;5040983;28;20037;-74
2023/10/29 06:07:56;;;;;;;7.40;1.48;;;;;;;;;;5043704;28;20075;-77
2023/10/29 06:10:57;;;;;;;3.28;1.33;;;;;;;;;;5033116;28;20236;-74
2023/10/29 06:13:23;;;;;;;5.07;1.60;;;;;;;;;;5038625;28;20052;-74
2023/10/29 06:15:48;;;;;;;4.93;1.35;;;;;;;;;;5040038;28;20071;-75
2023/10/29 06:18:54;;;;;;;14.63;1.65;;;;;;;;;;5045347;28;20065;-76
2023/10/29 06:22:35;;;;;;;4.18;1.33;;;;;;;;;;5040120;28;20443;-75
2023/10/29 06:26:15;;;;;;;4.88;1.48;;;;;;;;;;5045566;28;20045;-76
2023/10/29 06:29:59;;;;;;;5.45;1.40;;;;;;;;;;5042793;28;20048;-80
2023/10/29 06:33:19;;;;;;;7.13;1.30;;;;;;;;;;5046070;28;20048;-75
2023/10/29 06:35:45;;;;;;;6.63;1.50;;;;;;;;;;5042802;28;20045;-75
2023/10/29 06:38:51;;;;;;;7.05;1.67;;;;;;;;;;5035985;28;20056;-77
2023/10/29 06:41:52;;;;;;;15.25;1.90;;;;;;;;;;5041971;28;20049;-72
2023/10/29 06:44:19;;;;;;;3.67;1.40;;;;;;;;;;5036289;28;20045;-73
2023/10/29 06:47:25;;;;;;;7.82;1.27;;;;;;;;;;5024641;28;20129;-73
2023/10/29 06:51:07;;;;;;;4.93;1.20;;;;;;;;;;5030563;28;20044;-73
2023/10/29 06:54:47;;;;;;;5.00;1.67;;;;;;;;;;5037914;28;20072;-77
2023/10/29 06:58:27;;;;;;;6.18;1.30;;;;;;;;;;5033942;28;20201;-77
2023/10/29 07:02:09;;;;;;;4.60;1.35;;;;;;;;;;5031159;28;20470;-76
2023/10/29 07:05:49;;;;;;;6.18;1.33;;;;;;;;;;5037871;28;20041;-78
2023/10/29 07:09:29;;;;;;;4.60;1.67;;;;;;;;;;5038948;28;20069;-72
2023/10/29 07:13:10;;;;;;;5.47;1.30;;;;;;;;;;5038409;28;20063;-73
2023/10/29 07:16:50;;;;;;;6.05;1.70;;;;;;;;;;5039054;28;20056;-72
2023/10/29 07:20:31;;;;;;;7.80;1.42;;;;;;;;;;5037229;28;20170;-75
2023/10/29 07:24:12;;;;;;;6.07;1.40;;;;;;;;;;5037828;28;20053;-74
2023/10/29 07:27:53;;;;;;;7.13;1.60;;;;;;;;;;5041551;28;20768;-74
2023/10/29 07:31:33;;;;;;;7.13;1.65;;;;;;;;;;5041094;28;20072;-73
2023/10/29 07:35:13;;;;;;;6.20;1.52;;;;;;;;;;5040347;28;20045;-73
2023/10/29 07:38:54;;;;;;;3.33;1.20;;;;;;;;;;5037648;28;20078;-77
2023/10/29 07:42:35;;;;;;;4.40;1.10;;;;;;;;;;5038392;28;20060;-72
2023/10/29 07:46:21;;;;;;;3.75;1.30;;;;;;;;;;5040046;28;20056;-73
2023/10/29 07:50:03;;;;;;;5.22;1.40;;;;;;;;;;5035050;28;20154;-73
2023/10/29 07:53:44;;;;;;;3.40;1.10;;;;;;;;;;5036714;28;20041;-76
2023/10/29 07:57:25;;;;;;;6.45;1.30;;;;;;;;;;5030354;28;20057;-75
2023/10/29 08:01:09;;;;;;;6.05;1.77;;;;;;;;;;5033290;28;20213;-73
2023/10/29 08:04:51;;;;;;;7.15;1.52;;;;;;;;;;5033811;28;20047;-77
2023/10/29 08:08:32;;;;;;;6.05;1.92;;;;;;;;;;5040488;28;20432;-75
2023/10/29 08:12:13;;;;;;;6.18;1.20;;;;;;;;;;5041056;28;20142;-74
2023/10/29 08:15:54;;;;;;;4.47;1.33;;;;;;;;;;5044501;28;20731;-75
2023/10/29 08:19:34;;;;;;;7.28;1.25;;;;;;;;;;5038923;28;20055;-78
2023/10/29 08:23:14;;;;;;;5.68;1.30;;;;;;;;;;5037599;28;20132;-79
2023/10/29 08:26:57;;;;;;;5.05;1.45;;;;;;;;;;5040758;28;20041;-77
2023/10/29 08:30:37;;;;;;;4.78;1.70;;;;;;;;;;5041310;28;20041;-77
2023/10/29 08:34:17;;;;;;;7.68;2.60;;;;;;;;;;5050485;28;20546;-79
2023/10/29 08:37:58;;;;;;;8.13;1.90;;;;;;;;;;5046236;28;20044;-77
2023/10/29 08:41:41;;;;;;;9.07;2.35;;;;;;;;;;5052428;28;20122;-74
2023/10/29 08:45:22;;;;;;;4.50;1.40;;;;;;;;;;5052560;28;20247;-75
2023/10/29 08:49:02;;;;;;;6.20;2.40;;;;;;;;;;5039731;28;20167;-75
2023/10/29 08:52:43;;;;;;;7.45;2.20;;;;;;;;;;5037343;28;20060;-76
2023/10/29 08:56:29;;;;;;;5.10;1.50;;;;;;;;;;5042920;28;20048;-72
2023/10/29 09:00:10;;;;;;;4.80;1.13;;;;;;;;;;5039260;28;20147;-73
2023/10/29 09:03:50;;;;;;;5.25;1.17;;;;;;;;;;5033696;28;20155;-72
2023/10/29 09:07:33;;;;;;;4.15;1.20;;;;;;;;;;5037649;28;20060;-71
2023/10/29 09:11:15;;;;;;;6.40;1.83;;;;;;;;;;5037450;28;20080;-72
2023/10/29 09:14:57;;;;;;;5.28;1.27;;;;;;;;;;5042140;28;20049;-76
2023/10/29 09:18:37;;;;;;;5.95;1.10;;;;;;;;;;5046453;28;20042;-77
2023/10/29 09:22:17;;;;;;;2.95;0.90;;;;;;;;;;5041397;28;20049;-78
2023/10/29 09:25:57;;;;;;;4.18;1.38;;;;;;;;;;5045732;28;20044;-76
2023/10/29 09:29:40;;;;;;;4.35;1.35;;;;;;;;;;5044877;28;20122;-80
2023/10/29 09:33:18;;;;;;;5.90;1.73;;;;;;;;;;5039805;28;20040;-78
2023/10/29 09:36:58;;;;;;;4.30;1.33;;;;;;;;;;5038737;28;20052;-78
2023/10/29 09:40:39;;;;;;;4.40;1.30;;;;;;;;;;5051744;28;20047;-78
2023/10/29 09:44:19;;;;;;;3.40;1.20;;;;;;;;;;5032637;28;20060;-77
2023/10/29 09:47:59;;;;;;;5.57;1.20;;;;;;;;;;5039837;28;20471;-77
2023/10/29 09:51:41;;;;;;;4.35;1.27;;;;;;;;;;5036492;28;20103;-78
2023/10/29 09:55:22;;;;;;;3.65;1.20;;;;;;;;;;5057936;28;20059;-75
2023/10/29 09:59:04;;;;;;;3.58;1.38;;;;;;;;;;5044708;28;20048;-75
2023/10/29 10:02:43;;;;;;;4.22;1.30;;;;;;;;;;5048132;28;20065;-76
2023/10/29 10:06:23;;;;;;;5.45;1.23;;;;;;;;;;5055588;28;20206;-79
2023/10/29 10:10:09;;;;;;;3.50;1.00;;;;;;;;;;5054111;28;20060;-78
2023/10/29 10:13:59;;;;;;;4.32;1.45;;;;;;;;;;5055692;28;20049;-78
2023/10/29 10:17:48;;;;;;;4.97;1.30;;;;;;;;;;5044639;28;20075;-77
2023/10/29 10:21:06;;;;;;;;;;;;;;;;;;5056718;28;20044;-79
2023/10/29 10:24:59;;;;;;;3.35;1.23;;;;;;;;;;5048169;28;19963;-77
2023/10/29 10:28:39;;;;;;;4.68;1.33;;;;;;;;;;5049658;28;20049;-79
2023/10/29 10:32:21;;;;;;;5.53;1.10;;;;;;;;;;5045981;28;20045;-77
2023/10/29 10:36:02;;;;;;;4.85;1.48;;;;;;;;;;5047454;28;20044;-77
2023/10/29 10:39:44;;;;;;;4.13;1.20;;;;;;;;;;5048563;28;20044;-75
2023/10/29 10:43:26;;;;;;;3.78;1.17;;;;;;;;;;5046449;28;20501;-78
2023/10/29 10:47:05;;;;;;;5.68;1.80;;;;;;;;;;5045499;28;20049;-79
2023/10/29 10:50:45;;;;;;;4.43;1.20;;;;;;;;;;5056903;28;20113;-81
2023/10/29 10:54:29;;;;;;;4.90;1.20;;;;;;;;;;5047642;28;20056;-80
2023/10/29 10:58:08;;;;;;;4.20;1.33;;;;;;;;;;5045178;28;20041;-79
2023/10/29 11:01:54;;;;;;;4.75;1.40;;;;;;;;;;5066623;28;20049;-78
2023/10/29 11:05:34;;;;;;;4.83;1.47;;;;;;;;;;5043849;28;20087;-81
2023/10/29 11:09:17;;;;;;;4.50;1.08;;;;;;;;;;5052003;28;20050;-82
2023/10/29 11:12:56;;;;;;;8.63;1.65;;;;;;;;;;5057866;28;20067;-79
2023/10/29 11:16:39;;;;;;;3.38;1.35;;;;;;;;;;5052406;28;20183;-82
2023/10/29 11:20:21;;;;;;;5.93;1.85;;;;;;;;;;5066132;28;20065;-81
2023/10/29 11:24:02;;;;;;;8.43;1.20;;;;;;;;;;5056072;28;20622;-78
2023/10/29 11:27:41;;;;;;;2.88;1.00;;;;;;;;;;5054270;28;20515;-78
2023/10/29 11:31:38;;;;;;;7.38;1.60;;;;;;;;;;5042268;28;20123;-79
2023/10/29 11:35:30;;;;;;;5.15;1.27;;;;;;;;;;5049535;28;20052;-79
2023/10/29 11:39:10;;;;;;;3.80;1.02;;;;;;;;;;5046101;28;20563;-78
2023/10/29 11:42:57;;;;;;;4.63;1.00;;;;;;;;;;5038983;28;20075;-77
2023/10/29 11:46:38;;;;;;;4.32;1.02;;;;;;;;;;5045443;28;20866;-79
2023/10/29 11:49:44;;;;;;;2.70;1.10;;;;;;;;;;5049955;28;20049;-78
2023/10/29 11:53:24;;;;;;;4.18;1.13;;;;;;;;;;5044172;28;20037;-78
2023/10/29 11:57:04;;;;;;;3.67;1.27;;;;;;;;;;5043894;28;20118;-83
2023/10/29 12:00:45;;;;;;;5.13;1.20;;;;;;;;;;5050743;28;20055;-81
2023/10/29 12:04:29;;;;;;;6.18;1.25;;;;;;;;;;5056220;28;20036;-80
2023/10/29 12:08:08;;;;;;;4.20;1.10;;;;;;;;;;5050544;28;20407;-79
2023/10/29 12:11:51;;;;;;;3.63;1.10;;;;;;;;;;5051051;28;20053;-78
2023/10/29 12:15:30;;;;;;;2.85;0.98;;;;;;;;;;5042704;28;20051;-78
2023/10/29 12:19:10;;;;;;;2.63;0.88;;;;;;;;;;5035224;28;20387;-80
2023/10/29 12:22:57;;;;;;;3.28;0.93;;;;;;;;;;5043034;28;20051;-78
2023/10/29 12:26:18;;;;;;;;;;;;;;;;;;5043700;28;20036;-75
2023/10/29 12:29:57;;;;;;;4.97;1.17;;;;;;;;;;5037106;28;19935;-79
2023/10/29 12:33:44;;;;;;;5.88;1.33;;;;;;;;;;5039864;28;20492;-78
2023/10/29 12:37:24;;;;;;;1.55;0.75;;;;;;;;;;5040929;28;20075;-79
2023/10/29 12:41:00;;;;;;;2.65;1.00;;;;;;;;;;5042822;28;20040;-79
2023/10/29 12:44:40;;;;;;;3.30;1.10;;;;;;;;;;5035747;28;20071;-77
2023/10/29 12:48:26;;;;;;;3.17;1.13;;;;;;;;;;5037417;28;20708;-78
2023/10/29 12:52:17;;;;;;;3.17;0.90;;;;;;;;;;5042172;28;20416;-76
2023/10/29 12:56:03;;;;;;;6.50;1.23;;;;;;;;;;5057018;28;20048;-79
2023/10/29 12:59:44;;;;;;;4.65;0.98;;;;;;;;;;5032670;28;20049;-79
2023/10/29 13:03:24;;;;;;;3.45;1.13;;;;;;;;;;5036621;28;20258;-79
2023/10/29 13:07:07;;;;;;;2.55;1.10;;;;;;;;;;5048267;28;20045;-78
2023/10/29 13:10:49;;;;;;;2.30;1.10;;;;;;;;;;5052483;28;21346;-78
2023/10/29 13:14:29;;;;;;;1.95;0.73;;;;;;;;;;5047984;28;20056;-78
2023/10/29 13:18:10;;;;;;;3.90;1.38;;;;;;;;;;5038668;28;20049;-80
2023/10/29 13:21:52;;;;;;;2.45;1.10;;;;;;;;;;5051965;28;20044;-78
2023/10/29 13:25:30;;;;;;;2.60;0.90;;;;;;;;;;5049719;28;20049;-78
2023/10/29 13:29:10;;;;;;;4.78;1.15;;;;;;;;;;5037623;28;20049;-78
2023/10/29 13:32:51;;;;;;;2.53;1.00;;;;;;;;;;5059026;28;20125;-79
2023/10/29 13:36:31;;;;;;;3.13;1.10;;;;;;;;;;5063858;28;20108;-82
2023/10/29 13:40:14;;;;;;;6.03;1.35;;;;;;;;;;5064611;28;20172;-82
2023/10/29 13:43:56;;;;;;;5.18;0.90;;;;;;;;;;5052823;28;20052;-83
2023/10/29 13:47:36;;;;;;;4.10;1.13;;;;;;;;;;5040271;28;20057;-80
2023/10/29 13:51:17;;;;;;;3.33;1.20;;;;;;;;;;5043733;28;20049;-82
2023/10/29 13:54:59;;;;;;;5.47;1.02;;;;;;;;;;5034895;28;20130;-85
2023/10/29 13:58:40;;;;;;;2.83;1.20;;;;;;;;;;5048555;28;20045;-81
2023/10/29 14:02:22;;;;;;;6.95;2.42;;;;;;;;;;5062768;28;20072;-82
2023/10/29 14:06:04;;;;;;;8.50;2.30;;;;;;;;;;5059850;28;20466;-80
2023/10/29 14:09:42;;;;;;;7.40;2.67;;;;;;;;;;5062500;28;20050;-83
2023/10/29 14:13:23;;;;;;;5.85;1.80;;;;;;;;;;5055256;28;20053;-81
2023/10/29 14:17:12;;;;;;;5.68;2.03;;;;;;;;;;5052177;28;20037;-83
2023/10/29 14:20:54;;;;;;;5.88;1.70;;;;;;;;;;5050432;28;20049;-83
2023/10/29 14:24:34;;;;;;;6.82;2.10;;;;;;;;;;5055081;28;20053;-84
2023/10/29 14:28:16;;;;;;;7.53;2.10;;;;;;;;;;5051017;28;20048;-83
2023/10/29 14:31:56;;;;;;;5.28;1.30;;;;;;;;;;5043195;28;20398;-80
2023/10/29 14:35:37;;;;;;;4.85;1.60;;;;;;;;;;5065952;28;20462;-82
2023/10/29 14:39:18;;;;;;;5.00;1.55;;;;;;;;;;5047536;28;20076;-84
2023/10/29 14:42:59;;;;;;;5.18;1.60;;;;;;;;;;5046622;28;20048;-83
2023/10/29 14:46:39;;;;;;;4.38;1.50;;;;;;;;;;5044765;28;20069;-83
2023/10/29 14:50:19;;;;;;;5.43;1.80;;;;;;;;;;5060936;28;20044;-83
2023/10/29 14:54:01;;;;;;;6.13;1.90;;;;;;;;;;5050224;28;20404;-81
2023/10/29 14:57:43;;;;;;;6.95;1.55;;;;;;;;;;5053698;28;20044;-83
2023/10/29 15:01:27;;;;;;;4.18;1.60;;;;;;;;;;5042058;28;20044;-82
2023/10/29 15:05:08;;;;;;;4.95;1.42;;;;;;;;;;5040950;28;20051;-82
2023/10/29 15:08:48;;;;;;;6.45;1.80;;;;;;;;;;5049904;28;20108;-81
2023/10/29 15:12:28;;;;;;;3.03;1.15;;;;;;;;;;5043702;28;20136;-79
2023/10/29 15:16:08;;;;;;;4.40;1.30;;;;;;;;;;5049578;28;20087;-81
2023/10/29 15:19:50;;;;;;;5.15;1.30;;;;;;;;;;5042620;28;20053;-81
2023/10/29 15:23:31;;;;;;;5.32;1.20;;;;;;;;;;5044679;28;20105;-80
2023/10/29 15:27:12;;;;;;;5.85;1.30;;;;;;;;;;5060296;28;20473;-80
2023/10/29 15:30:54;;;;;;;4.45;1.20;;;;;;;;;;5055920;28;20508;-78
2023/10/29 15:34:34;;;;;;;6.75;1.25;;;;;;;;;;5041716;28;20111;-83
2023/10/29 15:38:15;;;;;;;3.10;1.30;;;;;;;;;;5037466;28;20040;-80
2023/10/29 15:41:56;;;;;;;4.82;1.63;;;;;;;;;;5040144;28;20052;-80
2023/10/29 15:45:36;;;;;;;5.18;1.05;;;;;;;;;;5055548;28;20044;-79
2023/10/29 15:49:17;;;;;;;5.93;1.27;;;;;;;;;;5043707;28;20045;-78
2023/10/29 15:53:12;;;;;;;5.23;1.60;;;;;;;;;;5049212;28;20795;-81
2023/10/29 15:56:52;;;;;;;4.97;1.80;;;;;;;;;;5053805;28;20510;-78
2023/10/29 16:00:34;;;;;;;6.40;1.70;;;;;;;;;;5040064;28;20060;-80
2023/10/29 16:04:14;;;;;;;7.05;1.42;;;;;;;;;;5048604;28;20056;-80
2023/10/29 16:07:55;;;;;;;5.43;1.20;;;;;;;;;;5049347;28;20410;-81
2023/10/29 16:11:39;;;;;;;6.25;1.42;;;;;;;;;;5050004;28;20045;-81
2023/10/29 16:15:19;;;;;;;4.25;1.45;;;;;;;;;;5044406;28;20383;-79
2023/10/29 16:18:59;;;;;;;3.53;1.25;;;;;;;;;;5045174;28;20048;-81
2023/10/29 16:22:41;;;;;;;4.50;1.23;;;;;;;;;;5060459;28;20123;-81
2023/10/29 16:26:22;;;;;;;4.10;1.27;;;;;;;;;;5039394;28;20453;-83
2023/10/29 16:30:05;;;;;;;2.67;1.20;;;;;;;;;;5048988;28;20062;-80
2023/10/29 16:33:45;;;;;;;2.67;1.20;;;;;;;;;;5035226;28;20094;-78
2023/10/29 16:37:27;;;;;;;4.93;1.35;;;;;;;;;;5041693;28;20128;-78
2023/10/29 16:41:07;;;;;;;3.42;1.10;;;;;;;;;;5034580;28;20405;-82
2023/10/29 16:44:52;;;;;;;8.02;1.92;;;;;;;;;;5054045;28;20045;-80
2023/10/29 16:48:32;;;;;;;5.93;1.83;;;;;;;;;;5040665;28;20755;-81
2023/10/29 16:52:14;;;;;;;3.95;1.20;;;;;;;;;;5045678;28;20135;-82
2023/10/29 16:55:54;;;;;;;2.40;1.05;;;;;;;;;;5036537;28;20048;-80
2023/10/29 16:59:36;;;;;;;5.47;1.48;;;;;;;;;;5051820;28;20037;-81
2023/10/29 17:03:16;;;;;;;5.65;1.48;;;;;;;;;;5053860;28;20048;-80
2023/10/29 17:06:58;;;;;;;4.07;1.50;;;;;;;;;;5049793;28;20263;-81
2023/10/29 17:10:39;;;;;;;7.45;1.80;;;;;;;;;;5041692;28;20045;-80
2023/10/29 17:14:18;;;;;;;6.57;1.50;;;;;;;;;;5051594;28;20455;-80
2023/10/29 17:17:59;;;;;;;4.47;1.35;;;;;;;;;;5047494;28;20055;-79
2023/10/29 17:21:41;;;;;;;10.23;2.05;;;;;;;;;;5049068;28;20071;-79
2023/10/29 17:25:23;;;;;;;5.40;1.40;;;;;;;;;;5053908;28;20059;-81
2023/10/29 17:29:03;;;;;;;8.27;1.60;;;;;;;;;;5057556;28;20572;-80
2023/10/29 17:32:44;;;;;;;8.93;2.30;;;;;;;;;;5058986;28;20052;-79
2023/10/29 17:36:30;;;;;;;4.97;1.80;;;;;;;;;;5063069;28;20045;-80
2023/10/29 17:40:13;;;;;;;5.82;1.63;;;;;;;;;;5053738;28;20037;-80
2023/10/29 17:43:54;;;;;;;9.50;1.95;;;;;;;;;;5046238;28;20059;-83
2023/10/29 17:47:34;;;;;;;8.40;1.90;;;;;;;;;;5056795;28;20052;-80
2023/10/29 17:51:17;;;;;;;7.40;2.03;;;;;;;;;;5056738;28;20052;-79
2023/10/29 17:54:56;;;;;;;4.03;1.40;;;;;;;;;;5049771;28;20041;-80
2023/10/29 17:58:37;;;;;;;4.90;1.70;;;;;;;;;;5053371;28;20052;-81
2023/10/29 18:02:18;;;;;;;8.00;2.03;;;;;;;;;;5053660;28;20109;-81
2023/10/29 18:06:00;;;;;;;6.78;2.45;;;;;;;;;;5046407;28;20032;-80
2023/10/29 18:09:41;;;;;;;10.35;4.30;;;;;;;;;;5049455;28;20045;-80
2023/10/29 18:13:22;;;;;;;6.30;2.83;;;;;;;;;;5058333;28;20045;-81
2023/10/29 18:17:02;;;;;;;10.02;2.95;;;;;;;;;;5036708;28;20045;-80
2023/10/29 18:20:45;;;;;;;7.15;1.90;;;;;;;;;;5042059;28;20088;-81
2023/10/29 18:24:27;;;;;;;7.93;2.15;;;;;;;;;;5048108;28;20484;-79
2023/10/29 18:28:07;;;;;;;9.40;1.80;;;;;;;;;;5048710;28;20044;-81
2023/10/29 18:31:49;;;;;;;7.13;2.22;;;;;;;;;;5053652;28;20324;-79
2023/10/29 18:34:50;;;;;;;7.75;2.05;;;;;;;;;;5051413;28;20051;-74
2023/10/29 18:38:00;;;;;;;9.45;2.50;;;;;;;;;;5018503;28;20049;-76
2023/10/29 18:41:38;;;;;;;11.00;3.08;;;;;;;;;;5050674;28;20790;-71
2023/10/29 18:44:29;;;;;;;11.52;3.63;;;;;;;;;;5046715;28;20048;-78
2023/10/29 18:47:07;;;;;;;9.68;3.83;;;;;;;;;;5034978;28;20056;-79
2023/10/29 18:49:37;;;;;;;8.38;3.05;;;;;;;;;;5027068;28;20145;-74
2023/10/29 18:52:04;;;;;;;9.35;3.00;;;;;;;;;;5044979;28;20068;-75
2023/10/29 18:54:33;;;;;;;9.27;2.92;;;;;;;;;;5044802;28;20045;-70
2023/10/29 18:56:59;;;;;;;10.15;2.90;;;;;;;;;;5045137;28;20528;-71
2023/10/29 18:59:27;;;;;;;7.43;2.88;;;;;;;;;;5043828;28;20043;-73
2023/10/29 19:01:53;;;;;;;10.45;2.85;;;;;;;;;;5042612;28;20048;-71
2023/10/29 19:04:20;;;;;;;10.23;2.83;;;;;;;;;;5041380;28;20073;-71
2023/10/29 19:06:48;;;;;;;7.70;2.53;;;;;;;;;;5024069;28;20045;-74
2023/10/29 19:09:14;;;;;;;5.20;2.35;;;;;;;;;;5045471;28;20056;-74
2023/10/29 19:11:40;;;;;;;9.25;2.55;;;;;;;;;;5043387;28;20537;-72
2023/10/29 19:14:07;;;;;;;7.43;2.28;;;;;;;;;;5035413;28;20144;-73
2023/10/29 19:16:33;;;;;;;9.70;2.53;;;;;;;;;;5040006;28;20098;-71
2023/10/29 19:19:03;;;;;;;4.47;2.15;;;;;;;;;;5020095;28;20361;-70
2023/10/29 19:21:29;;;;;;;7.13;2.60;;;;;;;;;;5022092;28;20044;-73
2023/10/29 19:23:55;;;;;;;8.10;2.25;;;;;;;;;;5038238;28;20045;-73
2023/10/29 19:26:23;;;;;;;5.43;2.58;;;;;;;;;;5030397;28;20048;-75
2023/10/29 19:28:50;;;;;;;9.73;3.03;;;;;;;;;;5037676;28;20388;-72
2023/10/29 19:31:16;;;;;;;5.57;2.50;;;;;;;;;;5040804;28;20053;-81
2023/10/29 19:33:43;;;;;;;8.55;2.78;;;;;;;;;;5044881;28;20067;-80
2023/10/29 19:36:15;;;;;;;9.55;3.58;;;;;;;;;;5024125;28;20144;-75
2023/10/29 19:38:41;;;;;;;10.60;2.72;;;;;;;;;;5039507;28;20056;-73
2023/10/29 19:41:09;;;;;;;9.10;3.35;;;;;;;;;;5042691;28;20055;-80
2023/10/29 19:43:35;;;;;;;8.85;3.80;;;;;;;;;;5021956;28;20059;-76
2023/10/29 19:46:04;;;;;;;8.10;3.20;;;;;;;;;;5039134;28;20054;-73
2023/10/29 19:48:35;;;;;;;8.85;3.55;;;;;;;;;;5020293;28;20127;-71
2023/10/29 19:51:06;;;;;;;13.15;4.15;;;;;;;;;;5036176;28;20044;-76
2023/10/29 19:53:34;;;;;;;15.25;3.40;;;;;;;;;;5042908;28;20156;-73
2023/10/29 19:56:06;;;;;;;11.02;2.92;;;;;;;;;;5041722;28;20132;-76
2023/10/29 19:58:34;;;;;;;9.95;2.88;;;;;;;;;;5044445;28;20120;-78
2023/10/29 20:01:04;;;;;;;7.18;2.95;;;;;;;;;;5025810;28;20433;-78
2023/10/29 20:03:33;;;;;;;10.05;2.88;;;;;;;;;;5037918;28;20046;-74
2023/10/29 20:06:04;;;;;;;8.20;3.22;;;;;;;;;;5045280;28;20041;-78
2023/10/29 20:08:32;;;;;;;10.90;3.22;;;;;;;;;;5038621;28;20064;-74
2023/10/29 20:10:58;;;;;;;9.48;3.00;;;;;;;;;;5025612;28;20067;-75
2023/10/29 20:13:29;;;;;;;8.07;3.10;;;;;;;;;;5015193;28;20489;-72
2023/10/29 20:15:58;;;;;;;11.88;2.90;;;;;;;;;;5037627;28;20103;-71
2023/10/29 20:18:27;;;;;;;10.55;3.90;;;;;;;;;;5037973;28;20063;-70
2023/10/29 20:20:57;;;;;;;12.63;3.53;;;;;;;;;;5038543;28;20417;-74
2023/10/29 20:23:25;;;;;;;11.88;3.50;;;;;;;;;;5043047;28;20104;-71
2023/10/29 20:25:55;;;;;;;7.82;3.65;;;;;;;;;;5042115;28;20597;-74